sensor_id;sensor_type;location;lat;lon;timestamp;temperature;humidity
19945;DHT22;10134;50.952;6.930;2024-01-15T00:00:05;2.30;99.90
19945;DHT22;10134;50.952;6.930;2024-01-15T00:02:37;2.30;99.90
19945;DHT22;10134;50.952;6.930;2024-01-15T00:05:06;2.30;99.90
19945;DHT22;10134;50.952;6.930;2024-01-15T00:07:35;2.30;99.90
19945;DHT22;10134;50.952;6.930;2024-01-15T00:10:04;2.30;99.90
19945;DHT22;10134;50.952;6.930;2024-01-15T00:12:34;2.30;99.90
19945;DHT22;10134;50.952;6.930;2024-01-15T00:15:04;2.30;99.90
19945;DHT22;10134;50.952;6.930;2024-01-15T00:17:33;2.30;99.90
19945;DHT22;10134;50.952;6.930;2024-01-15T00:20:02;2.30;99.90
19945;DHT22;10134;50.952;6.930;2024-01-15T00:22:32;2.30;99.90
19945;DHT22;10134;50.952;6.930;2024-01-15T00:25:03;2.30;99.90
19945;DHT22;10134;50.952;6.930;2024-01-15T00:27:32;2.30;99.90
19945;DHT22;10134;50.952;6.930;2024-01-15T00:30:02;2.30;99.90
19945;DHT22;10134;50.952;6.930;2024-01-15T00:32:32;2.30;99.90
19945;DHT22;10134;50.952;6.930;2024-01-15T00:35:00;2.30;99.90
19945;DHT22;10134;50.952;6.930;2024-01-15T00:37:30;2.30;99.90
19945;DHT22;10134;50.952;6.930;2024-01-15T00:39:59;2.30;99.90
19945;DHT22;10134;50.952;6.930;2024-01-15T00:42:28;2.40;99.90
19945;DHT22;10134;50.952;6.930;2024-01-15T00:44:57;2.40;99.90
19945;DHT22;10134;50.952;6.930;2024-01-15T00:47:27;2.40;99.90
19945;DHT22;10134;50.952;6.930;2024-01-15T00:49:55;2.30;99.90
19945;DHT22;10134;50.952;6.930;2024-01-15T00:52:24;2.30;99.90
19945;DHT22;10134;50.952;6.930;2024-01-15T00:54:52;2.30;99.90
19945;DHT22;10134;50.952;6.930;2024-01-15T00:57:21;2.30;99.90
19945;DHT22;10134;50.952;6.930;2024-01-15T00:59:50;2.30;99.90
19945;DHT22;10134;50.952;6.930;2024-01-15T01:02:18;2.30;99.90
19945;DHT22;10134;50.952;6.930;2024-01-15T01:04:48;2.30;99.90
19945;DHT22;10134;50.952;6.930;2024-01-15T01:07:17;2.30;99.90
19945;DHT22;10134;50.952;6.930;2024-01-15T01:09:46;2.30;99.90
19945;DHT22;10134;50.952;6.930;2024-01-15T01:12:15;2.30;99.90
19945;DHT22;10134;50.952;6.930;2024-01-15T01:14:44;2.30;99.90
19945;DHT22;10134;50.952;6.930;2024-01-15T01:17:13;2.30;99.90
19945;DHT22;10134;50.952;6.930;2024-01-15T01:19:41;2.20;99.90
19945;DHT22;10134;50.952;6.930;2024-01-15T01:22:12;2.20;99.90
19945;DHT22;10134;50.952;6.930;2024-01-15T01:24:40;2.20;99.90
19945;DHT22;10134;50.952;6.930;2024-01-15T01:27:09;2.20;99.90
19945;DHT22;10134;50.952;6.930;2024-01-15T01:29:38;2.20;99.90
19945;DHT22;10134;50.952;6.930;2024-01-15T01:32:06;2.20;99.90
19945;DHT22;10134;50.952;6.930;2024-01-15T01:34:40;2.20;99.90
19945;DHT22;10134;50.952;6.930;2024-01-15T01:37:09;2.20;99.90
19945;DHT22;10134;50.952;6.930;2024-01-15T01:39:42;2.20;99.90
19945;DHT22;10134;50.952;6.930;2024-01-15T01:42:11;2.20;99.90
19945;DHT22;10134;50.952;6.930;2024-01-15T01:44:40;2.20;99.90
19945;DHT22;10134;50.952;6.930;2024-01-15T01:47:09;2.20;99.90
19945;DHT22;10134;50.952;6.930;2024-01-15T01:49:38;2.20;99.90
19945;DHT22;10134;50.952;6.930;2024-01-15T01:52:07;2.30;99.90
19945;DHT22;10134;50.952;6.930;2024-01-15T01:54:38;2.30;99.90
19945;DHT22;10134;50.952;6.930;2024-01-15T01:57:10;2.30;99.90
19945;DHT22;10134;50.952;6.930;2024-01-15T01:59:40;2.30;99.90
19945;DHT22;10134;50.952;6.930;2024-01-15T02:02:09;2.30;99.90
19945;DHT22;10134;50.952;6.930;2024-01-15T02:04:38;2.30;99.90
19945;DHT22;10134;50.952;6.930;2024-01-15T02:07:07;2.30;99.90
19945;DHT22;10134;50.952;6.930;2024-01-15T02:09:37;2.30;99.90
19945;DHT22;10134;50.952;6.930;2024-01-15T02:12:07;2.30;99.90
19945;DHT22;10134;50.952;6.930;2024-01-15T02:14:37;2.30;99.90
19945;DHT22;10134;50.952;6.930;2024-01-15T02:17:06;2.30;99.90
19945;DHT22;10134;50.952;6.930;2024-01-15T02:19:37;2.30;99.90
19945;DHT22;10134;50.952;6.930;2024-01-15T02:22:07;2.30;99.90
19945;DHT22;10134;50.952;6.930;2024-01-15T02:24:37;2.30;99.90
19945;DHT22;10134;50.952;6.930;2024-01-15T02:27:05;2.30;99.90
19945;DHT22;10134;50.952;6.930;2024-01-15T02:29:35;2.30;99.90
19945;DHT22;10134;50.952;6.930;2024-01-15T02:32:05;2.30;99.90
19945;DHT22;10134;50.952;6.930;2024-01-15T02:34:34;2.30;99.90
19945;DHT22;10134;50.952;6.930;2024-01-15T02:37:03;2.30;99.90
19945;DHT22;10134;50.952;6.930;2024-01-15T02:39:32;2.30;99.90
19945;DHT22;10134;50.952;6.930;2024-01-15T02:42:02;2.30;99.90
19945;DHT22;10134;50.952;6.930;2024-01-15T02:44:31;2.30;99.90
19945;DHT22;10134;50.952;6.930;2024-01-15T02:46:59;2.30;99.90
19945;DHT22;10134;50.952;6.930;2024-01-15T02:49:28;2.30;99.90
19945;DHT22;10134;50.952;6.930;2024-01-15T02:51:57;2.30;99.90
19945;DHT22;10134;50.952;6.930;2024-01-15T02:54:25;2.40;99.90
19945;DHT22;10134;50.952;6.930;2024-01-15T02:56:55;2.40;99.90
19945;DHT22;10134;50.952;6.930;2024-01-15T02:59:25;2.40;99.90
19945;DHT22;10134;50.952;6.930;2024-01-15T03:01:54;2.40;99.90
19945;DHT22;10134;50.952;6.930;2024-01-15T03:04:22;2.40;99.90
19945;DHT22;10134;50.952;6.930;2024-01-15T03:06:51;2.40;99.90
19945;DHT22;10134;50.952;6.930;2024-01-15T03:09:20;2.40;99.90
19945;DHT22;10134;50.952;6.930;2024-01-15T03:11:48;2.40;99.90
19945;DHT22;10134;50.952;6.930;2024-01-15T03:14:17;2.40;99.90
19945;DHT22;10134;50.952;6.930;2024-01-15T03:16:47;2.40;99.90
19945;DHT22;10134;50.952;6.930;2024-01-15T03:19:15;2.40;99.90
19945;DHT22;10134;50.952;6.930;2024-01-15T03:21:44;2.40;99.90
19945;DHT22;10134;50.952;6.930;2024-01-15T03:24:13;2.40;99.90
19945;DHT22;10134;50.952;6.930;2024-01-15T03:26:42;2.40;99.90
19945;DHT22;10134;50.952;6.930;2024-01-15T03:29:11;2.40;99.90
19945;DHT22;10134;50.952;6.930;2024-01-15T03:31:39;2.40;99.90
19945;DHT22;10134;50.952;6.930;2024-01-15T03:34:09;2.40;99.90
19945;DHT22;10134;50.952;6.930;2024-01-15T03:36:38;2.40;99.90
19945;DHT22;10134;50.952;6.930;2024-01-15T03:39:08;2.40;99.90
19945;DHT22;10134;50.952;6.930;2024-01-15T03:41:37;2.40;99.90
19945;DHT22;10134;50.952;6.930;2024-01-15T03:44:05;2.40;99.90
19945;DHT22;10134;50.952;6.930;2024-01-15T03:46:34;2.40;99.90
19945;DHT22;10134;50.952;6.930;2024-01-15T03:49:03;2.40;99.90
19945;DHT22;10134;50.952;6.930;2024-01-15T03:51:33;2.40;99.90
19945;DHT22;10134;50.952;6.930;2024-01-15T03:54:01;2.40;99.90
19945;DHT22;10134;50.952;6.930;2024-01-15T03:56:30;2.40;99.90
19945;DHT22;10134;50.952;6.930;2024-01-15T03:58:59;2.40;99.90
19945;DHT22;10134;50.952;6.930;2024-01-15T04:01:27;2.40;99.90
19945;DHT22;10134;50.952;6.930;2024-01-15T04:03:56;2.40;99.90
19945;DHT22;10134;50.952;6.930;2024-01-15T04:06:25;2.40;99.90
19945;DHT22;10134;50.952;6.930;2024-01-15T04:08:55;2.40;99.90
19945;DHT22;10134;50.952;6.930;2024-01-15T04:11:24;2.40;99.90
19945;DHT22;10134;50.952;6.930;2024-01-15T04:13:53;2.40;99.90
19945;DHT22;10134;50.952;6.930;2024-01-15T04:16:21;2.40;99.90
19945;DHT22;10134;50.952;6.930;2024-01-15T04:18:50;2.40;99.90
19945;DHT22;10134;50.952;6.930;2024-01-15T04:21:18;2.40;99.90
19945;DHT22;10134;50.952;6.930;2024-01-15T04:23:47;2.40;99.90
19945;DHT22;10134;50.952;6.930;2024-01-15T04:26:17;2.40;99.90
19945;DHT22;10134;50.952;6.930;2024-01-15T04:28:46;2.50;99.90
19945;DHT22;10134;50.952;6.930;2024-01-15T04:31:21;2.50;99.90
19945;DHT22;10134;50.952;6.930;2024-01-15T04:33:51;2.50;99.90
19945;DHT22;10134;50.952;6.930;2024-01-15T04:36:19;2.50;99.90
19945;DHT22;10134;50.952;6.930;2024-01-15T04:38:48;2.50;99.90
19945;DHT22;10134;50.952;6.930;2024-01-15T04:41:18;2.50;99.90
19945;DHT22;10134;50.952;6.930;2024-01-15T04:43:47;2.50;99.90
19945;DHT22;10134;50.952;6.930;2024-01-15T04:46:16;2.50;99.90
19945;DHT22;10134;50.952;6.930;2024-01-15T04:48:45;2.50;99.90
19945;DHT22;10134;50.952;6.930;2024-01-15T04:51:13;2.50;99.90
19945;DHT22;10134;50.952;6.930;2024-01-15T04:53:45;2.50;99.90
19945;DHT22;10134;50.952;6.930;2024-01-15T04:56:13;2.50;99.90
19945;DHT22;10134;50.952;6.930;2024-01-15T04:58:43;2.50;99.90
19945;DHT22;10134;50.952;6.930;2024-01-15T05:01:12;2.50;99.90
19945;DHT22;10134;50.952;6.930;2024-01-15T05:03:41;2.50;99.90
19945;DHT22;10134;50.952;6.930;2024-01-15T05:06:10;2.50;99.90
19945;DHT22;10134;50.952;6.930;2024-01-15T05:08:38;2.50;99.90
19945;DHT22;10134;50.952;6.930;2024-01-15T05:11:07;2.50;99.90
19945;DHT22;10134;50.952;6.930;2024-01-15T05:13:36;2.50;99.90
19945;DHT22;10134;50.952;6.930;2024-01-15T05:16:06;2.50;99.90
19945;DHT22;10134;50.952;6.930;2024-01-15T05:18:34;2.50;99.90
19945;DHT22;10134;50.952;6.930;2024-01-15T05:21:04;2.50;99.90
19945;DHT22;10134;50.952;6.930;2024-01-15T05:23:33;2.50;99.90
19945;DHT22;10134;50.952;6.930;2024-01-15T05:26:02;2.50;99.90
19945;DHT22;10134;50.952;6.930;2024-01-15T05:28:31;2.60;99.90
19945;DHT22;10134;50.952;6.930;2024-01-15T05:31:00;2.60;99.90
19945;DHT22;10134;50.952;6.930;2024-01-15T05:33:30;2.60;99.90
19945;DHT22;10134;50.952;6.930;2024-01-15T05:35:59;2.60;99.90
19945;DHT22;10134;50.952;6.930;2024-01-15T05:38:29;2.60;99.90
19945;DHT22;10134;50.952;6.930;2024-01-15T05:40:57;2.60;99.90
19945;DHT22;10134;50.952;6.930;2024-01-15T05:43:26;2.60;99.90
19945;DHT22;10134;50.952;6.930;2024-01-15T05:45:55;2.60;99.90
19945;DHT22;10134;50.952;6.930;2024-01-15T05:48:24;2.60;99.90
19945;DHT22;10134;50.952;6.930;2024-01-15T05:50:54;2.60;99.90
19945;DHT22;10134;50.952;6.930;2024-01-15T05:53:31;2.60;99.90
19945;DHT22;10134;50.952;6.930;2024-01-15T05:55:59;2.60;99.90
19945;DHT22;10134;50.952;6.930;2024-01-15T05:58:28;2.60;99.90
19945;DHT22;10134;50.952;6.930;2024-01-15T06:00:57;2.60;99.90
19945;DHT22;10134;50.952;6.930;2024-01-15T06:03:26;2.60;99.90
19945;DHT22;10134;50.952;6.930;2024-01-15T06:05:57;2.60;99.90
19945;DHT22;10134;50.952;6.930;2024-01-15T06:08:26;2.60;99.90
19945;DHT22;10134;50.952;6.930;2024-01-15T06:10:56;2.60;99.90
19945;DHT22;10134;50.952;6.930;2024-01-15T06:13:28;2.60;99.90
19945;DHT22;10134;50.952;6.930;2024-01-15T06:15:57;2.60;99.90
19945;DHT22;10134;50.952;6.930;2024-01-15T06:18:26;2.70;99.90
19945;DHT22;10134;50.952;6.930;2024-01-15T06:20:56;2.70;99.90
19945;DHT22;10134;50.952;6.930;2024-01-15T06:23:29;2.70;99.90
19945;DHT22;10134;50.952;6.930;2024-01-15T06:25:57;2.70;99.90
19945;DHT22;10134;50.952;6.930;2024-01-15T06:28:26;2.70;99.90
19945;DHT22;10134;50.952;6.930;2024-01-15T06:30:55;2.70;99.90
19945;DHT22;10134;50.952;6.930;2024-01-15T06:33:23;2.70;99.90
19945;DHT22;10134;50.952;6.930;2024-01-15T06:35:52;2.70;99.90
19945;DHT22;10134;50.952;6.930;2024-01-15T06:38:22;2.70;99.90
19945;DHT22;10134;50.952;6.930;2024-01-15T06:40:52;2.70;99.90
19945;DHT22;10134;50.952;6.930;2024-01-15T06:43:23;2.70;99.90
19945;DHT22;10134;50.952;6.930;2024-01-15T06:45:52;2.70;99.90
19945;DHT22;10134;50.952;6.930;2024-01-15T06:48:22;2.80;99.90
19945;DHT22;10134;50.952;6.930;2024-01-15T06:50:51;2.80;99.90
19945;DHT22;10134;50.952;6.930;2024-01-15T06:53:20;2.80;99.90
19945;DHT22;10134;50.952;6.930;2024-01-15T06:55:50;2.80;99.90
19945;DHT22;10134;50.952;6.930;2024-01-15T06:58:19;2.80;99.90
19945;DHT22;10134;50.952;6.930;2024-01-15T07:00:47;2.80;99.90
19945;DHT22;10134;50.952;6.930;2024-01-15T07:03:16;2.80;99.90
19945;DHT22;10134;50.952;6.930;2024-01-15T07:05:45;2.80;99.90
19945;DHT22;10134;50.952;6.930;2024-01-15T07:08:14;2.80;99.90
19945;DHT22;10134;50.952;6.930;2024-01-15T07:10:44;2.80;99.90
19945;DHT22;10134;50.952;6.930;2024-01-15T07:13:14;2.80;99.90
19945;DHT22;10134;50.952;6.930;2024-01-15T07:15:43;2.80;99.90
19945;DHT22;10134;50.952;6.930;2024-01-15T07:18:12;2.80;99.90
19945;DHT22;10134;50.952;6.930;2024-01-15T07:20:40;2.80;99.90
19945;DHT22;10134;50.952;6.930;2024-01-15T07:23:12;2.90;99.90
19945;DHT22;10134;50.952;6.930;2024-01-15T07:25:41;2.80;99.90
19945;DHT22;10134;50.952;6.930;2024-01-15T07:28:10;2.90;99.90
19945;DHT22;10134;50.952;6.930;2024-01-15T07:30:40;2.90;99.90
19945;DHT22;10134;50.952;6.930;2024-01-15T07:33:08;2.90;99.90
19945;DHT22;10134;50.952;6.930;2024-01-15T07:35:38;2.90;99.90
19945;DHT22;10134;50.952;6.930;2024-01-15T07:38:07;2.90;99.90
19945;DHT22;10134;50.952;6.930;2024-01-15T07:40:36;2.90;99.90
19945;DHT22;10134;50.952;6.930;2024-01-15T07:43:05;2.90;99.90
19945;DHT22;10134;50.952;6.930;2024-01-15T07:45:35;2.90;99.90
19945;DHT22;10134;50.952;6.930;2024-01-15T07:48:06;2.90;99.90
19945;DHT22;10134;50.952;6.930;2024-01-15T07:50:35;2.90;99.90
19945;DHT22;10134;50.952;6.930;2024-01-15T07:53:04;2.90;99.90
19945;DHT22;10134;50.952;6.930;2024-01-15T07:55:32;2.90;99.90
19945;DHT22;10134;50.952;6.930;2024-01-15T07:58:01;2.90;99.90
19945;DHT22;10134;50.952;6.930;2024-01-15T08:00:42;2.90;99.90
19945;DHT22;10134;50.952;6.930;2024-01-15T08:03:13;2.90;99.90
19945;DHT22;10134;50.952;6.930;2024-01-15T08:05:44;2.90;99.90
19945;DHT22;10134;50.952;6.930;2024-01-15T08:08:14;2.90;99.90
19945;DHT22;10134;50.952;6.930;2024-01-15T08:10:42;2.90;99.90
19945;DHT22;10134;50.952;6.930;2024-01-15T08:13:11;2.90;99.90
19945;DHT22;10134;50.952;6.930;2024-01-15T08:15:42;2.90;99.90
19945;DHT22;10134;50.952;6.930;2024-01-15T08:18:10;2.90;99.90
19945;DHT22;10134;50.952;6.930;2024-01-15T08:20:40;2.90;99.90
19945;DHT22;10134;50.952;6.930;2024-01-15T08:23:10;2.90;99.90
19945;DHT22;10134;50.952;6.930;2024-01-15T08:25:38;2.90;99.90
19945;DHT22;10134;50.952;6.930;2024-01-15T08:28:09;2.90;99.90
19945;DHT22;10134;50.952;6.930;2024-01-15T08:30:37;3.00;99.90
19945;DHT22;10134;50.952;6.930;2024-01-15T08:33:06;3.00;99.90
19945;DHT22;10134;50.952;6.930;2024-01-15T08:35:49;3.00;99.90
19945;DHT22;10134;50.952;6.930;2024-01-15T08:38:18;3.00;99.90
19945;DHT22;10134;50.952;6.930;2024-01-15T08:40:49;3.00;99.90
19945;DHT22;10134;50.952;6.930;2024-01-15T08:43:18;3.00;99.90
19945;DHT22;10134;50.952;6.930;2024-01-15T08:45:47;3.00;99.90
19945;DHT22;10134;50.952;6.930;2024-01-15T08:48:16;3.00;99.90
19945;DHT22;10134;50.952;6.930;2024-01-15T08:50:44;3.00;99.90
19945;DHT22;10134;50.952;6.930;2024-01-15T08:53:16;3.00;99.90
19945;DHT22;10134;50.952;6.930;2024-01-15T08:55:45;3.00;99.90
19945;DHT22;10134;50.952;6.930;2024-01-15T08:58:14;3.00;99.90
19945;DHT22;10134;50.952;6.930;2024-01-15T09:00:42;3.00;99.90
19945;DHT22;10134;50.952;6.930;2024-01-15T09:03:11;3.00;99.90
19945;DHT22;10134;50.952;6.930;2024-01-15T09:05:40;3.00;99.90
19945;DHT22;10134;50.952;6.930;2024-01-15T09:08:10;3.00;99.90
19945;DHT22;10134;50.952;6.930;2024-01-15T09:10:40;3.00;99.90
19945;DHT22;10134;50.952;6.930;2024-01-15T09:13:09;3.00;99.90
19945;DHT22;10134;50.952;6.930;2024-01-15T09:15:37;3.00;99.90
19945;DHT22;10134;50.952;6.930;2024-01-15T09:18:06;3.00;99.90
19945;DHT22;10134;50.952;6.930;2024-01-15T09:20:35;3.00;99.90
19945;DHT22;10134;50.952;6.930;2024-01-15T09:23:05;3.00;99.90
19945;DHT22;10134;50.952;6.930;2024-01-15T09:25:34;3.00;99.90
19945;DHT22;10134;50.952;6.930;2024-01-15T09:28:05;3.00;99.90
19945;DHT22;10134;50.952;6.930;2024-01-15T09:30:34;3.00;99.90
19945;DHT22;10134;50.952;6.930;2024-01-15T09:33:04;3.00;99.90
19945;DHT22;10134;50.952;6.930;2024-01-15T09:35:33;3.00;99.90
19945;DHT22;10134;50.952;6.930;2024-01-15T09:38:01;3.00;99.90
19945;DHT22;10134;50.952;6.930;2024-01-15T09:40:31;3.00;99.90
19945;DHT22;10134;50.952;6.930;2024-01-15T09:43:05;3.00;99.90
19945;DHT22;10134;50.952;6.930;2024-01-15T09:45:34;3.00;99.90
19945;DHT22;10134;50.952;6.930;2024-01-15T09:48:04;3.00;99.90
19945;DHT22;10134;50.952;6.930;2024-01-15T09:50:33;3.00;99.90
19945;DHT22;10134;50.952;6.930;2024-01-15T09:53:02;3.00;99.90
19945;DHT22;10134;50.952;6.930;2024-01-15T09:55:32;2.90;99.90
19945;DHT22;10134;50.952;6.930;2024-01-15T09:58:01;2.90;99.90
19945;DHT22;10134;50.952;6.930;2024-01-15T10:00:33;2.90;99.90
19945;DHT22;10134;50.952;6.930;2024-01-15T10:03:05;2.90;99.90
19945;DHT22;10134;50.952;6.930;2024-01-15T10:05:34;2.90;99.90
19945;DHT22;10134;50.952;6.930;2024-01-15T10:08:04;2.80;99.90
19945;DHT22;10134;50.952;6.930;2024-01-15T10:10:36;2.80;99.90
19945;DHT22;10134;50.952;6.930;2024-01-15T10:13:05;2.80;99.90
19945;DHT22;10134;50.952;6.930;2024-01-15T10:15:36;2.80;99.90
19945;DHT22;10134;50.952;6.930;2024-01-15T10:18:06;2.80;99.90
19945;DHT22;10134;50.952;6.930;2024-01-15T10:20:35;2.80;99.90
19945;DHT22;10134;50.952;6.930;2024-01-15T10:23:04;2.80;99.90
19945;DHT22;10134;50.952;6.930;2024-01-15T10:25:35;2.80;99.90
19945;DHT22;10134;50.952;6.930;2024-01-15T10:28:05;2.80;99.90
19945;DHT22;10134;50.952;6.930;2024-01-15T10:30:34;2.70;99.90
19945;DHT22;10134;50.952;6.930;2024-01-15T10:33:06;2.70;99.90
19945;DHT22;10134;50.952;6.930;2024-01-15T10:35:41;2.70;99.90
19945;DHT22;10134;50.952;6.930;2024-01-15T10:38:09;2.70;99.90
19945;DHT22;10134;50.952;6.930;2024-01-15T10:40:39;2.70;99.90
19945;DHT22;10134;50.952;6.930;2024-01-15T10:43:09;2.70;99.90
19945;DHT22;10134;50.952;6.930;2024-01-15T10:45:43;2.70;99.90
19945;DHT22;10134;50.952;6.930;2024-01-15T10:48:13;2.70;99.90
19945;DHT22;10134;50.952;6.930;2024-01-15T10:50:43;2.70;99.90
19945;DHT22;10134;50.952;6.930;2024-01-15T10:53:14;2.70;99.90
19945;DHT22;10134;50.952;6.930;2024-01-15T10:55:46;2.60;99.90
19945;DHT22;10134;50.952;6.930;2024-01-15T10:58:16;2.60;99.90
19945;DHT22;10134;50.952;6.930;2024-01-15T11:00:47;2.60;99.90
19945;DHT22;10134;50.952;6.930;2024-01-15T11:03:18;2.60;99.90
19945;DHT22;10134;50.952;6.930;2024-01-15T11:05:47;2.60;99.90
19945;DHT22;10134;50.952;6.930;2024-01-15T11:08:17;2.60;99.90
19945;DHT22;10134;50.952;6.930;2024-01-15T11:10:47;2.60;99.90
19945;DHT22;10134;50.952;6.930;2024-01-15T11:13:20;2.60;99.90
19945;DHT22;10134;50.952;6.930;2024-01-15T11:15:57;2.60;99.90
19945;DHT22;10134;50.952;6.930;2024-01-15T11:18:30;2.60;99.90
19945;DHT22;10134;50.952;6.930;2024-01-15T11:21:19;2.60;99.90
19945;DHT22;10134;50.952;6.930;2024-01-15T11:23:50;2.60;99.90
19945;DHT22;10134;50.952;6.930;2024-01-15T11:26:32;2.60;99.90
19945;DHT22;10134;50.952;6.930;2024-01-15T11:29:03;2.60;99.90
19945;DHT22;10134;50.952;6.930;2024-01-15T11:31:58;2.60;99.90
19945;DHT22;10134;50.952;6.930;2024-01-15T11:34:57;2.70;99.90
19945;DHT22;10134;50.952;6.930;2024-01-15T11:37:29;2.70;99.90
19945;DHT22;10134;50.952;6.930;2024-01-15T11:40:02;2.70;99.90
19945;DHT22;10134;50.952;6.930;2024-01-15T11:42:32;2.70;99.90
19945;DHT22;10134;50.952;6.930;2024-01-15T11:45:01;2.70;99.90
19945;DHT22;10134;50.952;6.930;2024-01-15T11:50:48;2.70;99.90
19945;DHT22;10134;50.952;6.930;2024-01-15T11:53:25;2.70;99.90
19945;DHT22;10134;50.952;6.930;2024-01-15T11:55:58;2.70;99.90
19945;DHT22;10134;50.952;6.930;2024-01-15T11:58:27;2.80;99.90
19945;DHT22;10134;50.952;6.930;2024-01-15T12:00:56;2.80;99.90
19945;DHT22;10134;50.952;6.930;2024-01-15T12:03:24;2.80;99.90
19945;DHT22;10134;50.952;6.930;2024-01-15T12:05:59;2.80;99.90
19945;DHT22;10134;50.952;6.930;2024-01-15T12:08:29;2.80;99.90
19945;DHT22;10134;50.952;6.930;2024-01-15T12:10:57;2.80;99.90
19945;DHT22;10134;50.952;6.930;2024-01-15T12:13:27;2.80;99.90
19945;DHT22;10134;50.952;6.930;2024-01-15T12:15:58;2.80;99.90
19945;DHT22;10134;50.952;6.930;2024-01-15T12:18:30;2.80;99.90
19945;DHT22;10134;50.952;6.930;2024-01-15T12:21:01;2.90;99.90
19945;DHT22;10134;50.952;6.930;2024-01-15T12:23:30;2.90;99.90
19945;DHT22;10134;50.952;6.930;2024-01-15T12:25:58;2.90;99.90
19945;DHT22;10134;50.952;6.930;2024-01-15T12:28:27;2.90;99.90
19945;DHT22;10134;50.952;6.930;2024-01-15T12:30:56;2.90;99.90
19945;DHT22;10134;50.952;6.930;2024-01-15T12:33:27;3.00;99.90
19945;DHT22;10134;50.952;6.930;2024-01-15T12:35:56;3.00;99.90
19945;DHT22;10134;50.952;6.930;2024-01-15T12:38:28;3.00;99.90
19945;DHT22;10134;50.952;6.930;2024-01-15T12:40:57;3.00;99.90
19945;DHT22;10134;50.952;6.930;2024-01-15T12:43:24;3.00;99.90
19945;DHT22;10134;50.952;6.930;2024-01-15T12:45:53;3.10;99.90
19945;DHT22;10134;50.952;6.930;2024-01-15T12:48:22;3.10;99.90
19945;DHT22;10134;50.952;6.930;2024-01-15T12:50:52;3.10;99.90
19945;DHT22;10134;50.952;6.930;2024-01-15T12:53:21;3.10;99.90
19945;DHT22;10134;50.952;6.930;2024-01-15T12:55:50;3.10;99.90
19945;DHT22;10134;50.952;6.930;2024-01-15T12:58:19;3.10;99.90
19945;DHT22;10134;50.952;6.930;2024-01-15T13:00:48;3.20;99.90
19945;DHT22;10134;50.952;6.930;2024-01-15T13:03:17;3.20;99.90
19945;DHT22;10134;50.952;6.930;2024-01-15T13:05:46;3.20;99.90
19945;DHT22;10134;50.952;6.930;2024-01-15T13:08:15;3.20;99.90
19945;DHT22;10134;50.952;6.930;2024-01-15T13:10:43;3.20;99.90
19945;DHT22;10134;50.952;6.930;2024-01-15T13:13:13;3.20;99.90
19945;DHT22;10134;50.952;6.930;2024-01-15T13:15:42;3.30;99.90
19945;DHT22;10134;50.952;6.930;2024-01-15T13:18:11;3.20;99.90
19945;DHT22;10134;50.952;6.930;2024-01-15T13:20:40;3.30;99.90
19945;DHT22;10134;50.952;6.930;2024-01-15T13:23:08;3.30;99.90
19945;DHT22;10134;50.952;6.930;2024-01-15T13:25:37;3.30;99.90
19945;DHT22;10134;50.952;6.930;2024-01-15T13:28:06;3.30;99.90
19945;DHT22;10134;50.952;6.930;2024-01-15T13:30:36;3.30;99.90
19945;DHT22;10134;50.952;6.930;2024-01-15T13:33:05;3.30;99.90
19945;DHT22;10134;50.952;6.930;2024-01-15T13:35:35;3.30;99.90
19945;DHT22;10134;50.952;6.930;2024-01-15T13:38:04;3.30;99.90
19945;DHT22;10134;50.952;6.930;2024-01-15T13:40:33;3.30;99.90
19945;DHT22;10134;50.952;6.930;2024-01-15T13:43:01;3.30;99.90
19945;DHT22;10134;50.952;6.930;2024-01-15T13:45:35;3.30;99.90
19945;DHT22;10134;50.952;6.930;2024-01-15T13:48:05;3.30;99.90
19945;DHT22;10134;50.952;6.930;2024-01-15T13:50:36;3.30;99.90
19945;DHT22;10134;50.952;6.930;2024-01-15T13:53:04;3.30;99.90
19945;DHT22;10134;50.952;6.930;2024-01-15T13:55:33;3.30;99.90
19945;DHT22;10134;50.952;6.930;2024-01-15T13:58:02;3.30;99.90
19945;DHT22;10134;50.952;6.930;2024-01-15T14:00:33;3.30;99.90
19945;DHT22;10134;50.952;6.930;2024-01-15T14:03:03;3.30;99.90
19945;DHT22;10134;50.952;6.930;2024-01-15T14:05:33;3.30;99.90
19945;DHT22;10134;50.952;6.930;2024-01-15T14:08:01;3.30;99.90
19945;DHT22;10134;50.952;6.930;2024-01-15T14:10:30;3.30;99.90
19945;DHT22;10134;50.952;6.930;2024-01-15T14:13:00;3.30;99.90
19945;DHT22;10134;50.952;6.930;2024-01-15T14:15:29;3.20;99.90
19945;DHT22;10134;50.952;6.930;2024-01-15T14:17:58;3.20;99.90
19945;DHT22;10134;50.952;6.930;2024-01-15T14:20:29;3.20;99.90
19945;DHT22;10134;50.952;6.930;2024-01-15T14:22:58;3.20;99.90
19945;DHT22;10134;50.952;6.930;2024-01-15T14:25:27;3.20;99.90
19945;DHT22;10134;50.952;6.930;2024-01-15T14:27:55;3.20;99.90
19945;DHT22;10134;50.952;6.930;2024-01-15T14:30:24;3.20;99.90
19945;DHT22;10134;50.952;6.930;2024-01-15T14:32:53;3.20;99.90
19945;DHT22;10134;50.952;6.930;2024-01-15T14:35:21;3.20;99.90
19945;DHT22;10134;50.952;6.930;2024-01-15T14:37:51;3.20;99.90
19945;DHT22;10134;50.952;6.930;2024-01-15T14:40:20;3.10;99.90
19945;DHT22;10134;50.952;6.930;2024-01-15T14:42:49;3.10;99.90
19945;DHT22;10134;50.952;6.930;2024-01-15T14:45:19;3.20;99.90
19945;DHT22;10134;50.952;6.930;2024-01-15T14:47:49;3.10;99.90
19945;DHT22;10134;50.952;6.930;2024-01-15T14:50:18;3.20;99.90
19945;DHT22;10134;50.952;6.930;2024-01-15T14:52:47;3.10;99.90
19945;DHT22;10134;50.952;6.930;2024-01-15T14:55:17;3.20;99.90
19945;DHT22;10134;50.952;6.930;2024-01-15T14:57:48;3.10;99.90
19945;DHT22;10134;50.952;6.930;2024-01-15T15:00:17;3.10;99.90
19945;DHT22;10134;50.952;6.930;2024-01-15T15:02:46;3.10;99.90
19945;DHT22;10134;50.952;6.930;2024-01-15T15:05:15;3.10;99.90
19945;DHT22;10134;50.952;6.930;2024-01-15T15:07:44;3.10;99.90
19945;DHT22;10134;50.952;6.930;2024-01-15T15:10:13;3.10;99.90
19945;DHT22;10134;50.952;6.930;2024-01-15T15:12:43;3.10;99.90
19945;DHT22;10134;50.952;6.930;2024-01-15T15:15:12;3.10;99.90
19945;DHT22;10134;50.952;6.930;2024-01-15T15:17:47;3.10;99.90
19945;DHT22;10134;50.952;6.930;2024-01-15T15:20:15;3.10;99.90
19945;DHT22;10134;50.952;6.930;2024-01-15T15:22:46;3.10;99.90
19945;DHT22;10134;50.952;6.930;2024-01-15T15:25:15;3.10;99.90
19945;DHT22;10134;50.952;6.930;2024-01-15T15:27:47;3.10;99.90
19945;DHT22;10134;50.952;6.930;2024-01-15T15:30:16;3.10;99.90
19945;DHT22;10134;50.952;6.930;2024-01-15T15:32:45;3.10;99.90
19945;DHT22;10134;50.952;6.930;2024-01-15T15:35:14;3.10;99.90
19945;DHT22;10134;50.952;6.930;2024-01-15T15:37:43;3.00;99.90
19945;DHT22;10134;50.952;6.930;2024-01-15T15:40:11;3.00;99.90
19945;DHT22;10134;50.952;6.930;2024-01-15T15:42:40;3.00;99.90
19945;DHT22;10134;50.952;6.930;2024-01-15T15:45:11;3.00;99.90
19945;DHT22;10134;50.952;6.930;2024-01-15T15:47:41;3.00;99.90
19945;DHT22;10134;50.952;6.930;2024-01-15T15:50:10;3.00;99.90
19945;DHT22;10134;50.952;6.930;2024-01-15T15:52:39;3.00;99.90
19945;DHT22;10134;50.952;6.930;2024-01-15T15:55:08;3.00;99.90
19945;DHT22;10134;50.952;6.930;2024-01-15T15:57:37;2.90;99.90
19945;DHT22;10134;50.952;6.930;2024-01-15T16:00:06;2.90;99.90
19945;DHT22;10134;50.952;6.930;2024-01-15T16:02:42;2.90;99.90